createdAt,value
2022-12-23T00:01:30.601Z,2.50
2022-12-23T00:04:00.339Z,2.85
2022-12-23T00:06:28.386Z,2.85
2022-12-23T00:08:58.824Z,2.67
2022-12-23T00:11:30.119Z,2.90
2022-12-23T00:14:20.986Z,2.85
2022-12-23T00:16:51.344Z,2.60
2022-12-23T00:19:19.453Z,2.13
2022-12-23T00:21:48.519Z,2.50
2022-12-23T00:24:16.845Z,2.03
2022-12-23T00:26:46.526Z,2.30
2022-12-23T00:29:14.888Z,2.10
2022-12-23T00:31:43.142Z,2.10
2022-12-23T00:34:12.511Z,2.35
2022-12-23T00:36:41.305Z,2.65
2022-12-23T00:39:30.061Z,1.67
2022-12-23T00:42:17.306Z,2.22
2022-12-23T00:44:46.066Z,3.05
2022-12-23T00:47:35.685Z,2.67
2022-12-23T00:50:02.983Z,3.00
2022-12-23T00:52:31.394Z,2.33
2022-12-23T00:55:00.146Z,3.10
2022-12-23T00:57:29.652Z,2.80
2022-12-23T00:59:58.262Z,2.25
2022-12-23T01:02:43.875Z,2.90
2022-12-23T01:05:29.683Z,2.22
2022-12-23T01:07:57.984Z,2.40
2022-12-23T01:10:26.175Z,2.45
2022-12-23T01:12:56.419Z,1.85
2022-12-23T01:15:25.156Z,2.13
2022-12-23T01:17:53.893Z,2.42
2022-12-23T01:20:22.432Z,3.00
2022-12-23T01:22:50.885Z,1.73
2022-12-23T01:25:19.207Z,1.27
2022-12-23T01:27:47.616Z,2.15
2022-12-23T01:30:17.640Z,1.70
2022-12-23T01:32:45.968Z,2.50
2022-12-23T01:35:14.154Z,3.90
2022-12-23T01:37:42.266Z,1.92
2022-12-23T01:40:12.061Z,2.60
2022-12-23T01:42:45.291Z,2.38
2022-12-23T01:45:20.631Z,2.85
2022-12-23T01:47:57.349Z,2.35
2022-12-23T01:50:29.096Z,1.45
2022-12-23T01:53:07.760Z,3.30
2022-12-23T01:55:42.424Z,3.97
2022-12-23T01:58:14.937Z,3.53
2022-12-23T02:01:02.587Z,3.42
2022-12-23T02:03:46.110Z,3.38
2022-12-23T02:06:40.386Z,2.35
2022-12-23T02:09:20.946Z,2.60
2022-12-23T02:12:22.508Z,3.40
2022-12-23T02:15:20.560Z,3.60
2022-12-23T02:18:04.498Z,2.90
2022-12-23T02:20:55.068Z,2.83
2022-12-23T02:24:02.747Z,2.33
2022-12-23T02:26:57.012Z,2.83
2022-12-23T02:30:09.764Z,2.60
2022-12-23T02:32:53.988Z,2.00
2022-12-23T02:35:30.789Z,3.08
2022-12-23T02:38:05.726Z,3.45
2022-12-23T02:40:40.313Z,2.30
2022-12-23T02:43:15.494Z,2.80
2022-12-23T02:45:47.826Z,4.30
2022-12-23T02:48:23.471Z,3.22
2022-12-23T02:50:54.921Z,2.88
2022-12-23T02:53:28.160Z,2.53
2022-12-23T02:55:59.553Z,3.33
2022-12-23T02:58:32.204Z,2.50
2022-12-23T03:01:02.569Z,2.92
2022-12-23T03:03:33.311Z,2.83
2022-12-23T03:06:02.815Z,3.78
2022-12-23T03:08:35.883Z,4.30
2022-12-23T03:11:09.607Z,2.55
2022-12-23T03:13:50.323Z,3.22
2022-12-23T03:16:25.182Z,2.38
2022-12-23T03:19:05.248Z,2.08
2022-12-23T03:21:38.753Z,1.63
2022-12-23T03:24:13.969Z,2.40
2022-12-23T03:26:51.293Z,1.80
2022-12-23T03:29:26.227Z,2.40
2022-12-23T03:31:59.567Z,1.92
2022-12-23T03:34:34.559Z,1.85
2022-12-23T03:37:06.249Z,2.00
2022-12-23T03:39:39.230Z,1.98
2022-12-23T03:42:12.922Z,2.92
2022-12-23T03:45:10.646Z,1.58
2022-12-23T03:47:37.283Z,1.77
2022-12-23T03:50:12.833Z,2.97
2022-12-23T03:52:44.891Z,2.22
2022-12-23T03:55:19.016Z,2.28
2022-12-23T03:57:54.246Z,1.67
2022-12-23T04:00:22.238Z,1.90
2022-12-23T04:02:59.530Z,2.22
2022-12-23T04:05:33.823Z,2.15
2022-12-23T04:08:06.958Z,1.50
2022-12-23T04:10:35.842Z,2.50
2022-12-23T04:13:03.991Z,2.67
2022-12-23T04:15:32.668Z,2.83
2022-12-23T04:18:00.808Z,1.83
2022-12-23T04:20:30.169Z,2.45
2022-12-23T04:22:58.058Z,1.85
2022-12-23T04:25:26.017Z,2.20
2022-12-23T04:27:53.949Z,2.00
2022-12-23T04:30:23.200Z,1.98
2022-12-23T04:32:53.497Z,1.35
2022-12-23T04:35:21.481Z,2.92
2022-12-23T04:37:51.273Z,1.80
2022-12-23T04:40:19.475Z,2.85
2022-12-23T04:42:47.790Z,1.30
2022-12-23T04:45:16.223Z,2.10
2022-12-23T04:47:44.292Z,2.30
2022-12-23T04:50:15.666Z,1.70
2022-12-23T04:52:44.689Z,2.40
2022-12-23T04:55:14.057Z,2.67
2022-12-23T04:57:42.166Z,1.92
2022-12-23T05:00:11.340Z,3.03
2022-12-23T05:02:39.661Z,2.17
2022-12-23T05:05:08.111Z,3.00
2022-12-23T05:07:36.196Z,1.95
2022-12-23T05:10:04.082Z,2.55
2022-12-23T05:12:33.764Z,2.25
2022-12-23T05:15:01.905Z,3.30
2022-12-23T05:17:30.174Z,2.78
2022-12-23T05:19:58.032Z,3.40
2022-12-23T05:22:26.079Z,1.90
2022-12-23T05:24:54.165Z,2.95
2022-12-23T05:27:22.198Z,2.38
2022-12-23T05:29:51.443Z,2.28
2022-12-23T05:32:19.280Z,2.95
2022-12-23T05:34:47.179Z,2.33
2022-12-23T05:37:15.155Z,2.40
2022-12-23T05:39:43.008Z,2.63
2022-12-23T05:42:10.847Z,3.83
2022-12-23T05:44:38.709Z,2.28
2022-12-23T05:47:08.119Z,2.63
2022-12-23T05:49:36.044Z,2.83
2022-12-23T05:52:04.068Z,2.75
2022-12-23T05:54:31.869Z,3.13
2022-12-23T05:56:59.850Z,2.85
2022-12-23T05:59:31.342Z,3.00
2022-12-23T06:02:00.068Z,3.35
2022-12-23T06:04:29.572Z,3.55
2022-12-23T06:06:57.578Z,2.75
2022-12-23T06:09:25.404Z,2.65
2022-12-23T06:11:53.756Z,3.67
2022-12-23T06:14:28.314Z,3.80
2022-12-23T06:16:57.341Z,3.47
2022-12-23T06:19:26.019Z,4.15
2022-12-23T06:21:55.279Z,3.85
2022-12-23T06:24:23.816Z,4.28
2022-12-23T06:26:56.852Z,3.95
2022-12-23T06:29:25.673Z,3.85
2022-12-23T06:31:53.658Z,3.78
2022-12-23T06:34:21.616Z,3.67
2022-12-23T06:36:49.754Z,3.97
2022-12-23T06:39:19.225Z,3.58
2022-12-23T06:41:47.365Z,3.42
2022-12-23T06:44:15.573Z,3.80
2022-12-23T06:46:43.401Z,3.75
2022-12-23T06:49:13.780Z,4.28
2022-12-23T06:51:42.503Z,3.38
2022-12-23T06:54:12.006Z,3.78
2022-12-23T06:56:41.639Z,4.63
2022-12-23T06:59:10.295Z,4.68
2022-12-23T07:01:38.673Z,4.60
2022-12-23T07:04:06.651Z,5.32
2022-12-23T07:06:35.074Z,5.55
2022-12-23T07:09:02.893Z,5.05
2022-12-23T07:11:30.925Z,5.05
2022-12-23T07:14:02.713Z,5.03
2022-12-23T07:16:30.758Z,5.53
2022-12-23T07:18:58.634Z,4.45
2022-12-23T07:21:29.811Z,3.80
2022-12-23T07:23:58.088Z,5.03
2022-12-23T07:26:25.984Z,3.95
2022-12-23T07:28:54.361Z,4.03
2022-12-23T07:31:23.937Z,4.85
2022-12-23T07:33:51.931Z,6.15
2022-12-23T07:36:20.670Z,4.68
2022-12-23T07:38:50.615Z,3.63
2022-12-23T07:41:18.776Z,4.47
2022-12-23T07:43:47.422Z,3.38
2022-12-23T07:46:15.325Z,3.53
2022-12-23T07:48:44.978Z,3.47
2022-12-23T07:51:13.245Z,3.75
2022-12-23T07:53:41.277Z,3.88
2022-12-23T07:56:09.588Z,4.85
2022-12-23T07:58:38.136Z,3.88
2022-12-23T08:01:08.913Z,4.13
2022-12-23T08:03:38.056Z,4.15
2022-12-23T08:06:12.457Z,4.53
2022-12-23T08:08:43.873Z,4.18
2022-12-23T08:11:13.929Z,4.10
2022-12-23T08:13:43.472Z,4.65
2022-12-23T08:16:13.177Z,5.90
2022-12-23T08:18:43.351Z,6.15
2022-12-23T08:21:15.540Z,5.00
2022-12-23T08:23:44.081Z,6.45
2022-12-23T08:26:13.699Z,8.02
2022-12-23T08:28:43.853Z,7.38
2022-12-23T08:31:14.473Z,6.93
2022-12-23T08:33:44.822Z,6.40
2022-12-23T08:36:22.511Z,7.07
2022-12-23T08:38:54.462Z,8.15
2022-12-23T08:41:24.316Z,7.50
2022-12-23T08:43:52.712Z,8.82
2022-12-23T08:46:21.260Z,6.97
2022-12-23T08:48:51.564Z,6.38
2022-12-23T08:51:25.122Z,5.85
2022-12-23T08:54:00.178Z,5.55
2022-12-23T08:56:31.373Z,5.70
2022-12-23T08:58:59.646Z,5.68
2022-12-23T09:01:31.799Z,5.57
2022-12-23T09:04:02.628Z,5.40
2022-12-23T09:06:35.163Z,4.72
2022-12-23T09:09:03.158Z,5.88
2022-12-23T09:11:31.506Z,4.30
2022-12-23T09:14:01.715Z,5.40
2022-12-23T09:16:30.731Z,4.40
2022-12-23T09:18:59.867Z,4.30
2022-12-23T09:21:28.915Z,4.68
2022-12-23T09:23:58.352Z,4.90
2022-12-23T09:26:28.477Z,4.03
2022-12-23T09:28:57.522Z,4.50
2022-12-23T09:31:30.830Z,3.45
2022-12-23T09:34:02.796Z,2.97
2022-12-23T09:36:30.957Z,2.85
2022-12-23T09:39:00.620Z,3.03
2022-12-23T09:41:42.970Z,2.58
2022-12-23T09:44:25.307Z,3.10
2022-12-23T09:46:57.927Z,3.00
2022-12-23T09:49:25.838Z,2.83
2022-12-23T09:52:01.624Z,2.80
2022-12-23T09:54:36.382Z,3.75
2022-12-23T09:57:13.133Z,3.13
2022-12-23T09:59:59.626Z,2.70
2022-12-23T10:02:40.232Z,3.05
2022-12-23T10:05:20.828Z,4.45
2022-12-23T10:07:51.861Z,2.30
2022-12-23T10:10:30.277Z,2.80
2022-12-23T10:13:01.004Z,2.75
2022-12-23T10:15:33.915Z,4.00
2022-12-23T10:18:07.056Z,2.38
2022-12-23T10:20:42.951Z,2.65
2022-12-23T10:23:19.242Z,2.75
2022-12-23T10:25:52.944Z,3.58
2022-12-23T10:28:21.489Z,2.80
2022-12-23T10:33:56.952Z,2.83
2022-12-23T10:36:30.568Z,2.97
2022-12-23T10:39:05.795Z,2.45
2022-12-23T10:41:43.335Z,2.22
2022-12-23T10:44:54.374Z,2.53
2022-12-23T10:47:32.354Z,2.45
2022-12-23T10:50:09.774Z,2.70
2022-12-23T10:52:42.109Z,2.58
2022-12-23T10:55:22.026Z,3.45
2022-12-23T10:57:53.220Z,2.40
2022-12-23T11:00:24.368Z,3.47
2022-12-23T11:03:07.923Z,3.55
2022-12-23T11:05:37.252Z,4.70
2022-12-23T11:08:05.705Z,2.97
2022-12-23T11:10:34.702Z,4.03
2022-12-23T11:13:04.492Z,3.28
2022-12-23T11:15:34.784Z,5.53
2022-12-23T11:18:06.016Z,3.13
2022-12-23T11:20:35.168Z,3.42
2022-12-23T11:23:05.115Z,5.05
2022-12-23T11:25:36.348Z,6.65
2022-12-23T11:28:09.480Z,3.75
2022-12-23T11:30:55.197Z,4.55
2022-12-23T11:33:27.564Z,5.50
2022-12-23T11:36:04.451Z,6.40
2022-12-23T11:38:33.107Z,5.38
2022-12-23T11:41:01.231Z,4.80
2022-12-23T11:43:32.359Z,3.80
2022-12-23T11:46:26.423Z,3.75
2022-12-23T11:49:06.916Z,4.95
2022-12-23T11:51:35.455Z,6.68
2022-12-23T11:54:03.809Z,5.80
2022-12-23T11:56:38.064Z,6.10
2022-12-23T11:59:10.071Z,4.07
2022-12-23T12:01:39.466Z,5.45
2022-12-23T12:04:10.385Z,5.95
2022-12-23T12:06:48.401Z,5.93
2022-12-23T12:09:23.785Z,4.07
2022-12-23T12:11:55.837Z,4.50
2022-12-23T12:14:33.006Z,6.13
2022-12-23T12:17:07.584Z,4.88
2022-12-23T12:19:41.814Z,6.95
2022-12-23T12:22:17.289Z,6.70
2022-12-23T12:24:51.874Z,4.25
2022-12-23T12:27:24.539Z,4.38
2022-12-23T12:30:06.080Z,3.80
2022-12-23T12:32:47.339Z,4.53
2022-12-23T12:35:19.503Z,5.55
2022-12-23T12:37:53.316Z,4.85
2022-12-23T12:40:32.054Z,4.18
2022-12-23T12:43:07.145Z,3.58
2022-12-23T12:45:45.493Z,3.05
2022-12-23T12:48:31.708Z,2.78
2022-12-23T12:51:05.713Z,2.83
2022-12-23T12:53:35.046Z,2.67
2022-12-23T12:56:11.912Z,3.85
2022-12-23T12:58:42.014Z,3.15
2022-12-23T13:01:28.804Z,3.35
2022-12-23T13:04:30.428Z,2.85
2022-12-23T13:07:09.889Z,2.63
2022-12-23T13:09:51.054Z,2.47
2022-12-23T13:12:27.456Z,3.05
2022-12-23T13:15:04.447Z,2.53
2022-12-23T13:17:45.519Z,2.47
2022-12-23T13:20:25.429Z,2.13
2022-12-23T13:23:15.143Z,4.00
2022-12-23T13:25:56.921Z,3.50
2022-12-23T13:28:35.402Z,3.80
2022-12-23T13:31:13.014Z,4.07
2022-12-23T13:33:55.909Z,3.78
2022-12-23T13:36:38.145Z,5.43
2022-12-23T13:39:20.623Z,4.38
2022-12-23T13:41:53.605Z,3.95
2022-12-23T13:44:22.603Z,5.07
2022-12-23T13:47:06.409Z,4.60
2022-12-23T13:49:55.207Z,4.13
2022-12-23T13:52:34.156Z,3.75
2022-12-23T13:55:17.064Z,4.03
2022-12-23T13:57:53.492Z,3.90
2022-12-23T14:00:28.632Z,3.53
2022-12-23T14:03:18.262Z,3.95
2022-12-23T14:05:50.586Z,4.63
2022-12-23T14:08:36.753Z,3.55
2022-12-23T14:11:18.246Z,2.63
2022-12-23T14:14:00.455Z,2.63
2022-12-23T14:16:52.007Z,2.63
2022-12-23T14:19:43.987Z,2.55
2022-12-23T14:22:41.606Z,2.50
2022-12-23T14:25:41.871Z,2.80
2022-12-23T14:28:21.457Z,2.72
2022-12-23T14:30:49.855Z,2.22
2022-12-23T14:33:25.494Z,3.08
2022-12-23T14:35:58.581Z,5.03
2022-12-23T14:38:31.655Z,3.38
2022-12-23T14:41:18.070Z,3.58
2022-12-23T14:43:57.511Z,3.40
2022-12-23T14:46:59.857Z,3.35
2022-12-23T14:49:49.125Z,3.65
2022-12-23T14:52:49.614Z,2.80
2022-12-23T14:55:49.927Z,2.47
2022-12-23T14:58:40.560Z,2.10
2022-12-23T15:01:13.791Z,3.15
2022-12-23T15:03:46.235Z,3.08
2022-12-23T15:06:20.337Z,4.03
2022-12-23T15:08:52.159Z,3.47
2022-12-23T15:11:28.240Z,3.20
2022-12-23T15:14:00.525Z,3.03
2022-12-23T15:16:35.098Z,2.88
2022-12-23T15:19:13.892Z,3.33
2022-12-23T15:21:43.185Z,2.67
2022-12-23T15:24:17.833Z,3.60
2022-12-23T15:27:09.768Z,2.95
2022-12-23T15:29:44.377Z,2.88
2022-12-23T15:32:12.912Z,2.40
2022-12-23T15:34:42.162Z,3.85
2022-12-23T15:37:12.730Z,1.90
2022-12-23T15:39:43.804Z,2.40
2022-12-23T15:42:25.584Z,2.70
2022-12-23T15:44:55.535Z,5.28
2022-12-23T15:47:30.749Z,9.90
2022-12-23T15:49:59.919Z,7.90
2022-12-23T15:52:30.013Z,9.02
2022-12-23T15:55:04.248Z,8.32
2022-12-23T15:57:32.638Z,8.25
2022-12-23T16:00:02.085Z,5.68
2022-12-23T16:05:30.732Z,4.32
2022-12-23T16:08:13.610Z,3.50
2022-12-23T16:10:42.730Z,4.63
2022-12-23T16:13:46.761Z,4.72
2022-12-23T16:16:34.890Z,4.95
2022-12-23T16:19:03.189Z,4.60
2022-12-23T16:21:34.434Z,4.78
2022-12-23T16:24:06.633Z,5.75
2022-12-23T16:26:41.504Z,5.03
2022-12-23T16:29:11.910Z,5.07
2022-12-23T16:31:51.120Z,4.70
2022-12-23T16:34:23.114Z,4.45
2022-12-23T16:36:51.219Z,4.22
2022-12-23T16:39:22.829Z,4.93
2022-12-23T16:41:52.231Z,4.82
2022-12-23T16:44:20.754Z,5.28
2022-12-23T16:46:52.104Z,2.90
2022-12-23T16:49:26.733Z,2.67
2022-12-23T16:51:59.310Z,4.68
2022-12-23T16:54:27.946Z,3.83
2022-12-23T16:56:55.871Z,3.45
2022-12-23T16:59:26.141Z,4.70
2022-12-23T17:02:02.910Z,3.25
2022-12-23T17:04:31.652Z,2.92
2022-12-23T17:07:00.152Z,3.03
2022-12-23T17:09:28.187Z,2.75
2022-12-23T17:11:56.422Z,3.28
2022-12-23T17:14:26.829Z,3.55
2022-12-23T17:16:56.229Z,2.95
2022-12-23T17:19:28.858Z,2.72
2022-12-23T17:22:02.468Z,2.78
2022-12-23T17:24:31.256Z,2.88
2022-12-23T17:26:59.555Z,3.15
2022-12-23T17:29:28.418Z,3.28
2022-12-23T17:31:58.219Z,2.38
2022-12-23T17:34:26.191Z,5.45
2022-12-23T17:36:54.811Z,5.53
2022-12-23T17:39:26.736Z,4.35
2022-12-23T17:41:55.241Z,4.97
2022-12-23T17:44:23.559Z,4.85
2022-12-23T17:46:51.871Z,5.22
2022-12-23T17:49:24.149Z,6.65
2022-12-23T17:51:53.300Z,5.28
2022-12-23T17:54:25.027Z,5.82
2022-12-23T17:56:53.773Z,7.80
2022-12-23T17:59:23.133Z,7.47
2022-12-23T18:01:52.857Z,6.78
2022-12-23T18:04:22.574Z,6.72
2022-12-23T18:06:50.730Z,4.40
2022-12-23T18:09:21.977Z,4.85
2022-12-23T18:11:50.125Z,4.15
2022-12-23T18:14:22.621Z,5.18
2022-12-23T18:16:50.838Z,4.60
2022-12-23T18:19:20.773Z,2.72
2022-12-23T18:21:51.243Z,2.67
2022-12-23T18:24:19.525Z,2.60
2022-12-23T18:26:47.831Z,3.10
2022-12-23T18:29:16.873Z,3.92
2022-12-23T18:31:52.134Z,3.53
2022-12-23T18:34:22.166Z,4.07
2022-12-23T18:36:53.935Z,3.38
2022-12-23T18:39:22.616Z,4.30
2022-12-23T18:41:50.819Z,4.65
2022-12-23T18:44:21.181Z,3.85
2022-12-23T18:46:50.664Z,4.63
2022-12-23T18:49:18.760Z,3.97
2022-12-23T18:51:47.107Z,3.80
2022-12-23T18:54:19.783Z,3.13
2022-12-23T18:56:49.377Z,3.75
2022-12-23T18:59:24.308Z,3.22
2022-12-23T19:01:57.975Z,3.63
2022-12-23T19:04:26.566Z,4.22
2022-12-23T19:06:56.168Z,3.70
2022-12-23T19:09:26.609Z,3.72
2022-12-23T19:11:54.976Z,3.70
2022-12-23T19:14:25.254Z,3.92
2022-12-23T19:16:53.950Z,4.07
2022-12-23T19:19:23.171Z,3.28
2022-12-23T19:21:53.478Z,3.30
2022-12-23T19:24:21.400Z,4.25
2022-12-23T19:26:50.766Z,4.43
2022-12-23T19:29:19.179Z,3.72
2022-12-23T19:31:48.574Z,2.60
2022-12-23T19:34:16.812Z,2.85
2022-12-23T19:36:45.476Z,2.50
2022-12-23T19:39:17.276Z,3.13
2022-12-23T19:41:45.980Z,3.97
2022-12-23T19:44:15.401Z,3.05
2022-12-23T19:46:43.840Z,2.97
2022-12-23T19:49:17.742Z,2.88
2022-12-23T19:51:48.830Z,2.97
2022-12-23T19:54:16.829Z,2.90
2022-12-23T19:56:45.121Z,2.72
2022-12-23T19:59:13.864Z,2.15
2022-12-23T20:01:43.643Z,2.22
2022-12-23T20:04:12.620Z,2.58
2022-12-23T20:06:42.860Z,2.28
2022-12-23T20:09:13.057Z,2.33
2022-12-23T20:11:43.829Z,2.90
2022-12-23T20:14:13.165Z,2.50
2022-12-23T20:16:41.924Z,2.63
2022-12-23T20:19:12.114Z,2.38
2022-12-23T20:21:40.124Z,2.42
2022-12-23T20:24:08.914Z,2.15
2022-12-23T20:26:37.587Z,2.67
2022-12-23T20:29:06.613Z,3.00
2022-12-23T20:31:38.017Z,3.45
2022-12-23T20:34:07.372Z,3.63
2022-12-23T20:36:38.318Z,2.70
2022-12-23T20:39:07.297Z,2.85
2022-12-23T20:41:35.607Z,3.05
2022-12-23T20:46:52.037Z,2.80
2022-12-23T20:49:20.366Z,3.50
2022-12-23T20:51:49.811Z,2.75
2022-12-23T20:54:17.795Z,2.17
2022-12-23T20:56:46.302Z,2.55
2022-12-23T20:59:14.380Z,2.40
2022-12-23T21:01:43.184Z,2.17
2022-12-23T21:04:13.257Z,1.92
2022-12-23T21:06:41.698Z,2.40
2022-12-23T21:09:13.610Z,2.80
2022-12-23T21:11:43.887Z,2.42
2022-12-23T21:14:12.430Z,2.53
2022-12-23T21:16:44.504Z,3.25
2022-12-23T21:19:16.801Z,2.13
2022-12-23T21:21:45.867Z,3.00
2022-12-23T21:24:15.678Z,3.55
2022-12-23T21:26:43.892Z,2.45
2022-12-23T21:29:12.242Z,2.65
2022-12-23T21:31:42.535Z,3.40
2022-12-23T21:34:14.482Z,3.50
2022-12-23T21:36:43.822Z,3.60
2022-12-23T21:39:17.264Z,3.45
2022-12-23T21:41:46.024Z,2.55
2022-12-23T21:44:15.103Z,4.07
2022-12-23T21:46:43.665Z,3.90
2022-12-23T21:49:12.647Z,3.22
2022-12-23T21:51:41.682Z,3.42
2022-12-23T21:54:12.409Z,3.25
2022-12-23T21:56:42.451Z,3.63
2022-12-23T21:59:15.135Z,3.55
2022-12-23T22:01:44.157Z,3.22
2022-12-23T22:04:13.240Z,3.13
2022-12-23T22:06:45.260Z,3.88
2022-12-23T22:09:16.200Z,4.60
2022-12-23T22:11:48.001Z,5.18
2022-12-23T22:14:18.463Z,4.90
2022-12-23T22:16:47.253Z,4.07
2022-12-23T22:19:15.628Z,3.08
2022-12-23T22:21:43.699Z,4.15
2022-12-23T22:24:12.786Z,3.65
2022-12-23T22:26:41.029Z,4.10
2022-12-23T22:29:12.370Z,4.60
2022-12-23T22:31:43.208Z,3.08
2022-12-23T22:34:15.295Z,2.05
2022-12-23T22:36:43.878Z,2.80
2022-12-23T22:39:19.962Z,3.15
2022-12-23T22:41:49.254Z,3.25
2022-12-23T22:44:19.160Z,3.15
2022-12-23T22:46:47.656Z,3.40
2022-12-23T22:49:17.009Z,2.97
2022-12-23T22:51:45.837Z,2.92
2022-12-23T22:54:14.221Z,2.78
2022-12-23T22:56:42.581Z,4.13
2022-12-23T22:59:23.183Z,2.55
2022-12-23T23:01:52.750Z,3.90
2022-12-23T23:04:21.039Z,3.70
2022-12-23T23:06:49.219Z,4.15
2022-12-23T23:09:20.686Z,4.63
2022-12-23T23:11:48.596Z,4.03
2022-12-23T23:14:17.252Z,4.30
2022-12-23T23:16:48.021Z,3.45
2022-12-23T23:19:16.573Z,3.92
2022-12-23T23:21:45.131Z,3.00
2022-12-23T23:24:13.861Z,2.78
2022-12-23T23:26:43.571Z,3.58
2022-12-23T23:29:12.444Z,3.63
2022-12-23T23:31:42.916Z,3.33
2022-12-23T23:34:13.804Z,3.22
2022-12-23T23:36:42.726Z,3.00
2022-12-23T23:39:13.444Z,2.85
2022-12-23T23:41:42.348Z,3.70
2022-12-23T23:44:11.357Z,2.90
2022-12-23T23:46:39.577Z,3.50
2022-12-23T23:49:08.544Z,4.45
2022-12-23T23:51:38.617Z,3.30
2022-12-23T23:54:07.323Z,3.33
2022-12-23T23:56:39.193Z,3.20
2022-12-23T23:59:09.081Z,3.72
